createdAt,value
2023-02-06T00:06:28.136Z,0.8
2023-02-06T00:14:00.437Z,1.6
2023-02-06T00:21:32.745Z,0.9
2023-02-06T00:29:05.037Z,1.0
2023-02-06T00:36:37.357Z,1.6
2023-02-06T00:44:09.661Z,1.3
2023-02-06T00:51:41.999Z,1.4
2023-02-06T00:59:14.297Z,1.5
2023-02-06T01:06:46.602Z,1.2
2023-02-06T01:14:18.905Z,1.2
2023-02-06T01:21:51.251Z,1.4
2023-02-06T01:29:23.571Z,1.3
2023-02-06T01:36:55.891Z,1.2
2023-02-06T01:44:28.235Z,0.8
2023-02-06T01:52:00.556Z,1.9
2023-02-06T01:59:32.851Z,1.3
2023-02-06T02:07:05.148Z,0.9
2023-02-06T02:14:37.463Z,1.1
2023-02-06T02:22:09.767Z,0.7
2023-02-06T02:29:42.080Z,1.6
2023-02-06T02:37:14.400Z,1.0
2023-02-06T02:44:46.705Z,1.7
2023-02-06T02:52:19.003Z,1.2
2023-02-06T02:59:51.311Z,1.9
2023-02-06T03:07:23.621Z,1.1
2023-02-06T03:14:55.939Z,2.0
2023-02-06T03:22:28.263Z,1.4
2023-02-06T03:30:00.625Z,1.1
2023-02-06T03:37:32.935Z,1.5
2023-02-06T03:45:05.241Z,1.3
2023-02-06T03:52:37.537Z,1.2
2023-02-06T04:00:09.845Z,1.4
2023-02-06T04:07:42.167Z,1.3
2023-02-06T04:15:14.647Z,1.6
2023-02-06T04:22:46.982Z,1.4
2023-02-06T04:30:19.370Z,2.2
2023-02-06T04:37:51.710Z,1.2
2023-02-06T04:45:24.006Z,1.5
2023-02-06T04:52:56.327Z,1.6
2023-02-06T05:00:28.644Z,1.9
2023-02-06T05:08:00.941Z,1.9
2023-02-06T05:15:33.270Z,1.7
2023-02-06T05:16:20.644Z,2.4
2023-02-06T05:17:08.017Z,3.9
2023-02-06T05:17:55.317Z,4.0
2023-02-06T05:18:42.618Z,4.9
2023-02-06T05:19:30.055Z,5.6
2023-02-06T05:20:17.377Z,5.7
2023-02-06T05:21:04.855Z,4.7
2023-02-06T05:21:52.230Z,4.5
2023-02-06T05:22:39.546Z,6.3
2023-02-06T05:23:26.856Z,7.5
2023-02-06T05:24:14.288Z,8.5
2023-02-06T05:25:02.092Z,6.9
2023-02-06T05:25:49.411Z,6.7
2023-02-06T05:26:36.831Z,5.8
2023-02-06T05:27:24.305Z,6.1
2023-02-06T05:28:11.656Z,6.6
2023-02-06T05:28:59.289Z,7.3
2023-02-06T05:29:46.733Z,6.5
2023-02-06T05:30:34.157Z,5.5
2023-02-06T05:31:21.620Z,4.6
2023-02-06T05:32:09.043Z,5.5
2023-02-06T05:32:56.353Z,4.9
2023-02-06T05:33:43.675Z,4.6
2023-02-06T05:34:30.980Z,5.2
2023-02-06T05:35:18.368Z,4.9
2023-02-06T05:36:05.703Z,7.1
2023-02-06T05:36:53.030Z,5.6
2023-02-06T05:37:40.354Z,5.8
2023-02-06T05:38:27.660Z,4.7
2023-02-06T05:39:15.007Z,4.4
2023-02-06T05:40:02.325Z,4.2
2023-02-06T05:40:49.678Z,5.1
2023-02-06T05:41:36.996Z,5.3
2023-02-06T05:42:24.304Z,4.7
2023-02-06T05:43:11.648Z,9.6
2023-02-06T05:43:58.968Z,18.6
2023-02-06T05:44:46.290Z,28.0
2023-02-06T05:45:35.912Z,28.4
2023-02-06T05:46:23.463Z,27.9
2023-02-06T05:47:10.843Z,24.2
2023-02-06T05:47:58.163Z,19.9
2023-02-06T05:48:45.485Z,22.0
2023-02-06T05:49:32.939Z,18.8
2023-02-06T05:50:20.285Z,15.1
2023-02-06T05:51:07.634Z,13.7
2023-02-06T05:51:55.045Z,14.3
2023-02-06T05:52:42.373Z,15.0
2023-02-06T05:53:29.683Z,12.7
2023-02-06T05:54:17.113Z,12.0
2023-02-06T05:55:04.447Z,12.1
2023-02-06T05:55:51.785Z,9.9
2023-02-06T05:56:39.178Z,10.1
2023-02-06T05:57:26.493Z,8.2
2023-02-06T05:58:13.786Z,8.3
2023-02-06T05:59:01.228Z,8.3
2023-02-06T05:59:48.539Z,8.9
2023-02-06T06:00:35.876Z,9.3
2023-02-06T06:01:23.292Z,8.1
2023-02-06T06:02:10.599Z,8.6
2023-02-06T06:02:57.916Z,7.8
2023-02-06T06:03:45.351Z,8.2
2023-02-06T06:04:32.759Z,6.9
2023-02-06T06:05:20.067Z,5.8
2023-02-06T06:06:07.501Z,5.8
2023-02-06T06:06:54.819Z,6.9
2023-02-06T06:07:42.141Z,7.3
2023-02-06T06:08:29.525Z,5.8
2023-02-06T06:09:16.822Z,5.0
2023-02-06T06:10:04.106Z,7.3
2023-02-06T06:10:51.673Z,8.2
2023-02-06T06:11:39.027Z,9.1
2023-02-06T06:12:26.343Z,10.0
2023-02-06T06:13:13.859Z,7.1
2023-02-06T06:14:01.158Z,7.9
2023-02-06T06:14:48.510Z,7.6
2023-02-06T06:15:36.185Z,15.5
2023-02-06T06:16:23.975Z,16.9
2023-02-06T06:17:11.270Z,14.9
2023-02-06T06:17:58.589Z,12.8
2023-02-06T06:18:45.985Z,11.1
2023-02-06T06:19:33.291Z,10.3
2023-02-06T06:20:20.615Z,11.4
2023-02-06T06:21:08.002Z,9.9
2023-02-06T06:21:57.822Z,8.2
2023-02-06T06:22:45.541Z,8.1
2023-02-06T06:23:32.926Z,7.8
2023-02-06T06:24:20.229Z,7.7
2023-02-06T06:25:07.544Z,17.2
2023-02-06T06:25:54.968Z,25.3
2023-02-06T06:26:42.269Z,20.2
2023-02-06T06:27:29.570Z,16.1
2023-02-06T06:28:17.084Z,16.7
2023-02-06T06:29:04.447Z,15.7
2023-02-06T06:29:51.765Z,14.3
2023-02-06T06:30:39.260Z,12.9
2023-02-06T06:31:26.825Z,11.9
2023-02-06T06:32:14.284Z,12.1
2023-02-06T06:33:01.705Z,10.0
2023-02-06T06:33:49.021Z,12.3
2023-02-06T06:34:36.337Z,11.5
2023-02-06T06:35:23.773Z,12.8
2023-02-06T06:36:12.910Z,10.2
2023-02-06T06:37:01.590Z,11.1
2023-02-06T06:37:48.981Z,10.9
2023-02-06T06:38:36.296Z,7.8
2023-02-06T06:39:23.596Z,9.1
2023-02-06T06:40:11.079Z,9.0
2023-02-06T06:40:58.392Z,7.0
2023-02-06T06:41:45.727Z,8.0
2023-02-06T06:42:33.097Z,6.9
2023-02-06T06:43:20.409Z,7.4
2023-02-06T06:44:07.727Z,6.4
2023-02-06T06:44:55.140Z,7.5
2023-02-06T06:45:42.489Z,8.9
2023-02-06T06:46:29.827Z,7.3
2023-02-06T06:47:17.205Z,7.3
2023-02-06T06:48:04.526Z,7.1
2023-02-06T06:48:51.849Z,5.2
2023-02-06T06:49:39.277Z,6.1
2023-02-06T06:50:26.589Z,6.2
2023-02-06T06:51:13.899Z,5.4
2023-02-06T06:52:01.289Z,5.9
2023-02-06T06:52:48.593Z,6.2
2023-02-06T06:53:35.954Z,5.4
2023-02-06T06:54:23.328Z,5.5
2023-02-06T06:55:10.652Z,5.1
2023-02-06T06:55:57.960Z,4.5
2023-02-06T06:56:45.648Z,16.3
2023-02-06T06:57:32.973Z,9.7
2023-02-06T06:58:20.289Z,7.1
2023-02-06T06:59:07.719Z,13.8
2023-02-06T06:59:55.041Z,12.6
2023-02-06T07:00:42.389Z,10.0
2023-02-06T07:01:29.764Z,6.9
2023-02-06T07:02:17.077Z,8.6
2023-02-06T07:03:04.385Z,5.7
2023-02-06T07:03:51.827Z,7.6
2023-02-06T07:04:39.138Z,10.1
2023-02-06T07:05:26.442Z,7.4
2023-02-06T07:06:13.905Z,7.1
2023-02-06T07:07:01.261Z,5.9
2023-02-06T07:07:48.611Z,7.2
2023-02-06T07:08:36.046Z,8.5
2023-02-06T07:09:23.415Z,8.2
2023-02-06T07:10:10.763Z,6.5
2023-02-06T07:10:58.174Z,7.3
2023-02-06T07:11:45.503Z,10.1
2023-02-06T07:12:32.819Z,9.5
2023-02-06T07:13:20.265Z,8.7
2023-02-06T07:14:07.590Z,9.8
2023-02-06T07:14:54.908Z,9.8
2023-02-06T07:15:42.340Z,8.4
2023-02-06T07:16:29.729Z,7.0
2023-02-06T07:17:17.076Z,8.4
2023-02-06T07:18:04.489Z,9.2
2023-02-06T07:18:51.782Z,10.0
2023-02-06T07:19:39.098Z,8.4
2023-02-06T07:20:26.529Z,8.2
2023-02-06T07:21:13.871Z,8.5
2023-02-06T07:22:01.235Z,10.9
2023-02-06T07:22:48.604Z,8.5
2023-02-06T07:23:35.909Z,8.4
2023-02-06T07:24:23.230Z,11.3
2023-02-06T07:25:10.669Z,8.0
2023-02-06T07:25:57.994Z,10.0
2023-02-06T07:26:45.314Z,9.7
2023-02-06T07:27:32.754Z,9.9
2023-02-06T07:28:20.165Z,10.2
2023-02-06T07:29:07.532Z,8.2
2023-02-06T07:29:54.912Z,9.1
2023-02-06T07:30:42.258Z,7.7
2023-02-06T07:31:29.636Z,7.7
2023-02-06T07:32:16.985Z,8.9
2023-02-06T07:33:04.309Z,8.6
2023-02-06T07:33:51.627Z,7.3
2023-02-06T07:34:39.039Z,7.0
2023-02-06T07:35:26.359Z,7.6
2023-02-06T07:36:13.679Z,6.7
2023-02-06T07:37:01.054Z,6.2
2023-02-06T07:37:48.377Z,7.0
2023-02-06T07:38:35.697Z,6.2
2023-02-06T07:39:23.152Z,6.6
2023-02-06T07:40:10.508Z,5.9
2023-02-06T07:40:57.819Z,7.5
2023-02-06T07:41:45.225Z,6.9
2023-02-06T07:42:32.558Z,6.5
2023-02-06T07:43:19.897Z,6.1
2023-02-06T07:44:07.256Z,6.2
2023-02-06T07:44:54.576Z,5.8
2023-02-06T07:45:41.996Z,6.6
2023-02-06T07:46:29.313Z,8.0
2023-02-06T07:47:16.612Z,9.1
2023-02-06T07:48:03.909Z,15.3
2023-02-06T07:48:51.394Z,10.3
2023-02-06T07:49:38.727Z,7.3
2023-02-06T07:50:26.116Z,7.4
2023-02-06T07:51:13.480Z,9.6
2023-02-06T07:52:00.790Z,8.3
2023-02-06T07:52:48.541Z,8.5
2023-02-06T07:53:35.851Z,8.7
2023-02-06T07:54:23.204Z,10.2
2023-02-06T07:55:10.528Z,11.0
2023-02-06T07:55:57.846Z,10.4
2023-02-06T07:56:45.167Z,10.2
2023-02-06T07:57:32.517Z,10.7
2023-02-06T07:58:19.809Z,9.8
2023-02-06T07:59:07.129Z,10.2
2023-02-06T07:59:54.439Z,9.2
2023-02-06T08:00:41.773Z,9.2
2023-02-06T08:01:29.118Z,9.4
2023-02-06T08:02:16.435Z,9.3
2023-02-06T08:03:03.765Z,9.2
2023-02-06T08:03:51.089Z,7.7
2023-02-06T08:04:38.455Z,7.1
2023-02-06T08:05:25.831Z,9.4
2023-02-06T08:06:13.155Z,7.3
2023-02-06T08:07:00.487Z,6.0
2023-02-06T08:07:47.810Z,6.5
2023-02-06T08:08:35.236Z,6.0
2023-02-06T08:09:22.583Z,6.7
2023-02-06T08:10:09.897Z,6.3
2023-02-06T08:10:57.210Z,6.6
2023-02-06T08:11:44.529Z,7.8
2023-02-06T08:12:31.873Z,7.6
2023-02-06T08:13:19.210Z,7.5
2023-02-06T08:14:06.540Z,7.1
2023-02-06T08:14:53.856Z,9.3
2023-02-06T08:15:41.178Z,10.1
2023-02-06T08:16:28.511Z,12.1
2023-02-06T08:17:16.470Z,12.7
2023-02-06T08:18:04.829Z,10.4
2023-02-06T08:18:52.157Z,10.4
2023-02-06T08:19:39.449Z,7.6
2023-02-06T08:20:26.767Z,9.0
2023-02-06T08:21:14.230Z,9.5
2023-02-06T08:22:01.697Z,10.3
2023-02-06T08:22:49.036Z,9.9
2023-02-06T08:23:36.450Z,9.6
2023-02-06T08:24:23.823Z,8.8
2023-02-06T08:25:11.134Z,7.9
2023-02-06T08:25:58.559Z,9.0
2023-02-06T08:26:45.881Z,8.8
2023-02-06T08:27:33.186Z,11.4
2023-02-06T08:28:20.984Z,9.9
2023-02-06T08:29:08.401Z,8.4
2023-02-06T08:29:55.923Z,8.0
2023-02-06T08:30:43.341Z,8.6
2023-02-06T08:31:30.926Z,7.8
2023-02-06T08:32:18.395Z,7.9
2023-02-06T08:33:05.701Z,8.6
2023-02-06T08:33:53.014Z,9.2
2023-02-06T08:34:40.321Z,8.5
2023-02-06T08:35:27.700Z,7.6
2023-02-06T08:36:15.000Z,6.5
2023-02-06T08:37:02.393Z,8.1
2023-02-06T08:37:49.737Z,6.0
2023-02-06T08:38:37.109Z,6.5
2023-02-06T08:39:24.439Z,7.7
2023-02-06T08:40:11.761Z,9.3
2023-02-06T08:40:59.053Z,7.8
2023-02-06T08:41:46.349Z,6.2
2023-02-06T08:42:33.647Z,6.6
2023-02-06T08:43:20.969Z,6.0
2023-02-06T08:44:08.284Z,6.6
2023-02-06T08:44:55.601Z,5.6
2023-02-06T08:45:42.967Z,8.2
2023-02-06T08:46:30.323Z,11.5
2023-02-06T08:47:17.631Z,9.5
2023-02-06T08:48:04.961Z,8.7
2023-02-06T08:48:52.275Z,8.4
2023-02-06T08:49:39.604Z,7.9
2023-02-06T08:50:26.933Z,10.4
2023-02-06T08:51:14.260Z,11.5
2023-02-06T08:52:01.602Z,9.1
2023-02-06T08:52:48.910Z,9.9
2023-02-06T08:53:36.214Z,14.3
2023-02-06T08:54:23.543Z,13.1
2023-02-06T08:55:10.890Z,11.6
2023-02-06T08:55:58.207Z,10.3
2023-02-06T08:56:45.563Z,8.7
2023-02-06T08:57:32.880Z,7.8
2023-02-06T08:58:20.189Z,7.9
2023-02-06T08:59:07.518Z,8.3
2023-02-06T08:59:54.830Z,8.6
2023-02-06T09:00:42.315Z,8.4
2023-02-06T09:01:29.671Z,8.3
2023-02-06T09:02:17.038Z,8.6
2023-02-06T09:03:04.365Z,6.6
2023-02-06T09:03:51.657Z,9.5
2023-02-06T09:04:38.994Z,87.0
2023-02-06T09:05:26.358Z,92.2
2023-02-06T09:06:13.722Z,65.9
2023-02-06T09:07:01.048Z,48.0
2023-02-06T09:07:48.386Z,42.5
2023-02-06T09:08:35.711Z,31.9
2023-02-06T09:09:23.053Z,31.9
2023-02-06T09:10:22.192Z,30.2
2023-02-06T09:11:07.661Z,26.6
2023-02-06T09:11:55.105Z,27.1
2023-02-06T09:12:42.437Z,24.8
2023-02-06T09:13:29.765Z,22.0
2023-02-06T09:14:17.153Z,19.6
2023-02-06T09:15:04.493Z,19.2
2023-02-06T09:15:51.821Z,15.4
2023-02-06T09:16:39.227Z,15.9
2023-02-06T09:17:26.546Z,15.9
2023-02-06T09:18:13.986Z,15.6
2023-02-06T09:19:01.555Z,18.9
2023-02-06T09:19:48.978Z,16.5
2023-02-06T09:20:36.338Z,15.7
2023-02-06T09:21:23.634Z,15.2
2023-02-06T09:22:10.941Z,12.5
2023-02-06T09:22:58.255Z,13.3
2023-02-06T09:23:45.581Z,13.8
2023-02-06T09:24:32.901Z,16.9
2023-02-06T09:25:20.198Z,17.6
2023-02-06T09:26:07.516Z,13.9
2023-02-06T09:26:59.755Z,16.2
2023-02-06T09:27:47.983Z,17.2
2023-02-06T09:28:35.364Z,14.3
2023-02-06T09:29:22.699Z,15.0
2023-02-06T09:30:10.018Z,12.8
2023-02-06T09:30:57.496Z,13.6
2023-02-06T09:31:44.878Z,11.1
2023-02-06T09:32:32.241Z,9.9
2023-02-06T09:33:19.734Z,13.2
2023-02-06T09:34:07.092Z,11.1
2023-02-06T09:34:54.454Z,11.4
2023-02-06T09:35:41.900Z,10.3
2023-02-06T09:36:29.232Z,10.6
2023-02-06T09:37:16.555Z,10.0
2023-02-06T09:38:03.944Z,9.1
2023-02-06T09:38:51.267Z,8.5
2023-02-06T09:39:38.593Z,10.4
2023-02-06T09:40:26.002Z,10.8
2023-02-06T09:41:13.318Z,8.2
2023-02-06T09:42:00.667Z,7.2
2023-02-06T09:42:48.050Z,7.8
2023-02-06T09:43:35.362Z,7.7
2023-02-06T09:44:22.670Z,9.0
2023-02-06T09:45:10.104Z,6.9
2023-02-06T09:45:57.438Z,8.1
2023-02-06T09:46:47.065Z,7.8
2023-02-06T09:47:34.389Z,7.3
2023-02-06T09:48:21.716Z,7.0
2023-02-06T09:49:09.021Z,7.3
2023-02-06T09:49:56.326Z,7.4
2023-02-06T09:50:43.744Z,10.1
2023-02-06T09:51:31.078Z,11.4
2023-02-06T09:52:18.415Z,13.2
2023-02-06T09:53:05.796Z,10.8
2023-02-06T09:53:53.153Z,10.5
2023-02-06T09:54:40.488Z,13.2
2023-02-06T09:55:27.852Z,21.9
2023-02-06T09:56:15.180Z,19.4
2023-02-06T09:57:02.489Z,20.3
2023-02-06T09:57:49.901Z,21.0
2023-02-06T09:58:37.281Z,16.7
2023-02-06T09:59:24.593Z,18.9
2023-02-06T10:00:12.044Z,16.9
2023-02-06T10:00:59.409Z,16.6
2023-02-06T10:01:46.858Z,17.2
2023-02-06T10:02:34.236Z,24.5
2023-02-06T10:03:21.557Z,19.3
2023-02-06T10:04:08.930Z,15.7
2023-02-06T10:04:56.311Z,13.7
2023-02-06T10:05:43.629Z,13.1
2023-02-06T10:06:30.959Z,11.5
2023-02-06T10:07:18.390Z,9.0
2023-02-06T10:08:05.697Z,10.0
2023-02-06T10:08:53.049Z,11.2
2023-02-06T10:09:40.402Z,14.6
2023-02-06T10:10:27.746Z,13.7
2023-02-06T10:11:15.068Z,12.7
2023-02-06T10:12:02.471Z,11.5
2023-02-06T10:12:49.782Z,14.5
2023-02-06T10:13:37.097Z,15.2
2023-02-06T10:14:24.480Z,14.6
2023-02-06T10:15:11.793Z,14.2
2023-02-06T10:15:59.102Z,14.6
2023-02-06T10:16:46.524Z,10.7
2023-02-06T10:17:33.825Z,9.4
2023-02-06T10:18:21.185Z,11.5
2023-02-06T10:19:08.551Z,10.1
2023-02-06T10:19:55.866Z,10.5
2023-02-06T10:20:43.201Z,9.3
2023-02-06T10:21:30.582Z,9.8
2023-02-06T10:22:17.898Z,8.5
2023-02-06T10:23:05.202Z,11.3
2023-02-06T10:23:52.637Z,8.8
2023-02-06T10:24:40.409Z,9.1
2023-02-06T10:25:27.709Z,7.1
2023-02-06T10:26:15.145Z,5.7
2023-02-06T10:27:02.482Z,7.4
2023-02-06T10:27:49.824Z,6.8
2023-02-06T10:28:37.223Z,5.6
2023-02-06T10:29:24.535Z,6.2
2023-02-06T10:30:11.872Z,6.8
2023-02-06T10:30:59.396Z,6.0
2023-02-06T10:31:46.818Z,5.9
2023-02-06T10:32:34.161Z,6.9
2023-02-06T10:33:25.515Z,5.6
2023-02-06T10:34:13.230Z,6.1
2023-02-06T10:35:00.576Z,8.4
2023-02-06T10:35:47.883Z,6.4
2023-02-06T10:36:35.190Z,4.7
2023-02-06T10:37:22.624Z,4.8
2023-02-06T10:38:09.956Z,5.7
2023-02-06T10:38:57.266Z,5.8
2023-02-06T10:39:44.701Z,6.3
2023-02-06T10:40:32.015Z,6.2
2023-02-06T10:41:19.321Z,6.3
2023-02-06T10:42:06.755Z,6.8
2023-02-06T10:42:54.060Z,8.9
2023-02-06T10:43:41.435Z,9.5
2023-02-06T10:44:28.798Z,10.7
2023-02-06T10:45:20.257Z,9.8
2023-02-06T10:46:07.875Z,18.2
2023-02-06T10:46:55.374Z,24.2
2023-02-06T10:47:42.740Z,22.0
2023-02-06T10:48:30.050Z,22.3
2023-02-06T10:49:17.508Z,19.3
2023-02-06T10:50:04.838Z,18.7
2023-02-06T10:50:52.167Z,17.1
2023-02-06T10:51:39.577Z,13.0
2023-02-06T10:52:26.908Z,13.9
2023-02-06T10:53:14.237Z,12.6
2023-02-06T10:54:01.704Z,13.8
2023-02-06T10:54:49.052Z,12.7
2023-02-06T10:55:36.409Z,11.3
2023-02-06T10:56:23.824Z,12.6
2023-02-06T10:57:11.127Z,11.4
2023-02-06T10:57:58.443Z,10.6
2023-02-06T10:58:45.856Z,12.9
2023-02-06T10:59:33.193Z,11.4
2023-02-06T11:00:20.530Z,10.7
2023-02-06T11:01:23.654Z,8.3
2023-02-06T11:02:05.297Z,9.8
2023-02-06T11:03:06.208Z,7.9
2023-02-06T11:03:49.907Z,8.5
2023-02-06T11:04:37.316Z,9.2
2023-02-06T11:05:24.617Z,8.9
2023-02-06T11:06:11.932Z,7.1
2023-02-06T11:06:59.330Z,7.7
2023-02-06T11:07:46.670Z,7.3
2023-02-06T11:08:34.017Z,6.5
2023-02-06T11:09:21.401Z,7.8
2023-02-06T11:10:08.745Z,6.6
2023-02-06T11:10:56.056Z,5.7
2023-02-06T11:11:43.457Z,7.9
2023-02-06T11:12:30.775Z,5.7
2023-02-06T11:13:18.096Z,6.6
2023-02-06T11:14:05.485Z,6.7
2023-02-06T11:14:52.804Z,5.9
2023-02-06T11:15:40.190Z,8.4
2023-02-06T11:16:27.628Z,8.3
2023-02-06T11:17:14.974Z,8.8
2023-02-06T11:18:02.298Z,8.2
2023-02-06T11:18:49.764Z,8.7
2023-02-06T11:19:37.108Z,8.7
2023-02-06T11:20:24.412Z,8.5
2023-02-06T11:21:11.871Z,6.4
2023-02-06T11:21:59.200Z,5.8
2023-02-06T11:22:52.793Z,6.9
2023-02-06T11:23:40.889Z,5.9
2023-02-06T11:24:28.302Z,6.1
2023-02-06T11:25:15.613Z,6.6
2023-02-06T11:26:02.935Z,6.2
2023-02-06T11:33:35.263Z,6.2
2023-02-06T11:41:07.594Z,5.7
2023-02-06T11:48:39.913Z,4.9
2023-02-06T11:53:49.526Z,6.7
2023-02-06T11:54:36.847Z,4.6
2023-02-06T11:55:24.164Z,5.8
2023-02-06T11:56:11.481Z,5.9
2023-02-06T11:56:58.809Z,4.3
2023-02-06T11:57:46.102Z,5.0
2023-02-06T11:58:33.495Z,4.5
2023-02-06T11:59:20.792Z,4.7
2023-02-06T12:00:08.156Z,3.4
2023-02-06T12:00:55.485Z,5.5
2023-02-06T12:01:42.992Z,4.6
2023-02-06T12:02:30.434Z,5.5
2023-02-06T12:03:18.057Z,3.9
2023-02-06T12:04:05.382Z,4.5
2023-02-06T12:04:52.689Z,4.2
2023-02-06T12:05:40.169Z,4.8
2023-02-06T12:06:27.547Z,3.7
2023-02-06T12:07:14.853Z,3.9
2023-02-06T12:08:02.150Z,3.4
2023-02-06T12:08:49.504Z,3.9
2023-02-06T12:09:36.836Z,4.6
2023-02-06T12:10:24.322Z,8.6
2023-02-06T12:11:12.522Z,9.1
2023-02-06T12:11:59.855Z,9.9
2023-02-06T12:12:47.163Z,8.0
2023-02-06T12:13:34.462Z,7.5
2023-02-06T12:14:21.826Z,7.5
2023-02-06T12:15:33.137Z,7.5
2023-02-06T12:16:06.434Z,12.6
2023-02-06T12:16:53.851Z,12.2
2023-02-06T12:17:41.185Z,10.8
2023-02-06T12:18:28.529Z,12.3
2023-02-06T12:19:15.926Z,8.6
2023-02-06T12:20:03.236Z,9.3
2023-02-06T12:20:50.632Z,10.2
2023-02-06T12:21:38.006Z,9.9
2023-02-06T12:22:25.420Z,9.8
2023-02-06T12:23:12.726Z,7.8
2023-02-06T12:24:00.165Z,8.7
2023-02-06T12:24:47.485Z,8.4
2023-02-06T12:25:35.170Z,7.2
2023-02-06T12:26:22.727Z,7.9
2023-02-06T12:27:10.314Z,7.2
2023-02-06T12:27:57.694Z,7.5
2023-02-06T12:28:45.039Z,7.0
2023-02-06T12:29:32.446Z,6.1
2023-02-06T12:30:20.073Z,6.0
2023-02-06T12:31:07.536Z,4.9
2023-02-06T12:31:55.007Z,6.4
2023-02-06T12:32:42.425Z,5.1
2023-02-06T12:33:29.743Z,5.3
2023-02-06T12:34:17.147Z,5.7
2023-02-06T12:35:04.465Z,4.6
2023-02-06T12:35:51.781Z,5.2
2023-02-06T12:36:39.204Z,4.1
2023-02-06T12:37:26.506Z,3.5
2023-02-06T12:38:13.866Z,3.6
2023-02-06T12:39:01.218Z,4.2
2023-02-06T12:39:48.516Z,4.9
2023-02-06T12:40:35.844Z,4.0
2023-02-06T12:41:23.264Z,4.4
2023-02-06T12:42:10.650Z,4.7
2023-02-06T12:42:57.953Z,5.3
2023-02-06T12:43:45.414Z,5.4
2023-02-06T12:44:32.729Z,3.9
2023-02-06T12:45:20.044Z,4.1
2023-02-06T12:46:07.614Z,4.3
2023-02-06T12:46:54.965Z,3.4
2023-02-06T12:47:42.294Z,4.5
2023-02-06T12:48:29.748Z,4.3
2023-02-06T12:49:17.064Z,3.5
2023-02-06T12:50:04.358Z,3.7
2023-02-06T12:50:51.821Z,3.7
2023-02-06T12:51:39.146Z,3.5
2023-02-06T12:52:26.496Z,4.2
2023-02-06T12:53:13.888Z,3.6
2023-02-06T12:54:01.236Z,4.3
2023-02-06T12:54:48.581Z,3.8
2023-02-06T12:55:36.286Z,3.8
2023-02-06T12:56:24.580Z,4.2
2023-02-06T12:57:11.980Z,3.8
2023-02-06T12:57:59.277Z,3.3
2023-02-06T12:58:46.574Z,3.3
2023-02-06T12:59:33.920Z,3.0
2023-02-06T13:00:21.239Z,2.8
2023-02-06T13:01:17.670Z,3.6
2023-02-06T13:02:05.936Z,3.2
2023-02-06T13:02:53.259Z,3.4
2023-02-06T13:03:40.671Z,4.4
2023-02-06T13:04:27.982Z,3.9
2023-02-06T13:05:15.386Z,4.2
2023-02-06T13:06:02.721Z,4.3
2023-02-06T13:06:50.028Z,4.4
2023-02-06T13:07:48.767Z,4.4
2023-02-06T13:08:34.785Z,5.2
2023-02-06T13:09:22.167Z,4.6
2023-02-06T13:10:09.565Z,4.6
2023-02-06T13:10:56.924Z,4.6
2023-02-06T13:11:44.305Z,3.9
2023-02-06T13:12:31.646Z,6.2
2023-02-06T13:13:18.946Z,5.2
2023-02-06T13:14:06.356Z,4.8
2023-02-06T13:14:53.677Z,5.3
2023-02-06T13:15:41.298Z,5.0
2023-02-06T13:16:28.634Z,5.6
2023-02-06T13:17:15.970Z,4.7
2023-02-06T13:18:03.277Z,3.9
2023-02-06T13:18:50.713Z,4.3
2023-02-06T13:19:38.042Z,4.1
2023-02-06T13:20:25.365Z,4.0
2023-02-06T13:21:12.776Z,4.4
2023-02-06T13:22:00.115Z,4.6
2023-02-06T13:22:47.439Z,4.4
2023-02-06T13:23:34.876Z,4.1
2023-02-06T13:24:22.179Z,4.1
2023-02-06T13:25:09.487Z,6.0
2023-02-06T13:25:56.911Z,5.3
2023-02-06T13:26:44.239Z,5.8
2023-02-06T13:27:31.549Z,6.2
2023-02-06T13:28:18.990Z,6.1
2023-02-06T13:29:06.312Z,5.4
2023-02-06T13:29:53.626Z,5.2
2023-02-06T13:30:41.125Z,4.6
2023-02-06T13:31:28.491Z,5.0
2023-02-06T13:32:15.936Z,5.0
2023-02-06T13:33:03.361Z,4.5
2023-02-06T13:33:50.727Z,5.1
2023-02-06T13:34:38.034Z,4.7
2023-02-06T13:35:25.468Z,5.0
2023-02-06T13:36:12.766Z,5.8
2023-02-06T13:37:00.077Z,4.6
2023-02-06T13:37:48.285Z,6.4
2023-02-06T13:38:35.668Z,5.0
2023-02-06T13:39:22.988Z,5.4
2023-02-06T13:40:10.351Z,5.4
2023-02-06T13:40:57.728Z,9.2
2023-02-06T13:41:45.067Z,9.6
2023-02-06T13:42:32.388Z,10.2
2023-02-06T13:43:19.781Z,9.0
2023-02-06T13:44:07.085Z,8.0
2023-02-06T13:44:54.416Z,7.5
2023-02-06T13:45:41.784Z,6.6
2023-02-06T13:46:29.095Z,7.2
2023-02-06T13:47:16.425Z,9.3
2023-02-06T13:48:04.618Z,10.4
2023-02-06T13:48:51.954Z,7.7
2023-02-06T13:49:39.270Z,7.3
2023-02-06T13:50:26.583Z,7.9
2023-02-06T13:51:13.985Z,7.1
2023-02-06T13:52:01.309Z,12.6
2023-02-06T13:52:48.670Z,14.9
2023-02-06T13:53:36.063Z,15.1
2023-02-06T13:54:23.389Z,12.0
2023-02-06T13:55:10.726Z,12.3
2023-02-06T13:55:58.130Z,9.5
2023-02-06T13:56:45.465Z,9.5
2023-02-06T13:57:32.828Z,15.0
2023-02-06T13:58:20.202Z,15.9
2023-02-06T13:59:07.837Z,13.4
2023-02-06T13:59:55.760Z,16.0
2023-02-06T14:00:43.368Z,17.1
2023-02-06T14:01:30.760Z,18.0
2023-02-06T14:02:18.129Z,14.6
2023-02-06T14:03:05.459Z,13.2
2023-02-06T14:03:52.871Z,13.5
2023-02-06T14:04:40.170Z,11.4
2023-02-06T14:05:27.492Z,12.5
2023-02-06T14:06:14.923Z,11.6
2023-02-06T14:07:02.243Z,11.6
2023-02-06T14:07:49.556Z,12.1
2023-02-06T14:08:37.012Z,16.3
2023-02-06T14:09:24.322Z,24.2
2023-02-06T14:10:11.681Z,32.1
2023-02-06T14:10:59.045Z,27.6
2023-02-06T14:11:46.370Z,22.8
2023-02-06T14:12:33.705Z,23.5
2023-02-06T14:13:21.147Z,19.6
2023-02-06T14:14:08.479Z,16.6
2023-02-06T14:14:55.792Z,17.5
2023-02-06T14:15:43.250Z,17.0
2023-02-06T14:16:30.571Z,16.2
2023-02-06T14:17:17.895Z,14.8
2023-02-06T14:18:05.293Z,12.9
2023-02-06T14:18:52.650Z,13.3
2023-02-06T14:19:39.957Z,12.0
2023-02-06T14:20:27.361Z,10.9
2023-02-06T14:21:14.734Z,10.3
2023-02-06T14:22:02.068Z,8.8
2023-02-06T14:22:49.440Z,8.4
2023-02-06T14:23:36.770Z,9.0
2023-02-06T14:24:24.126Z,7.8
2023-02-06T14:25:11.515Z,10.8
2023-02-06T14:25:58.876Z,8.3
2023-02-06T14:26:46.229Z,8.3
2023-02-06T14:27:33.620Z,16.6
2023-02-06T14:28:21.005Z,24.9
2023-02-06T14:29:08.463Z,34.1
2023-02-06T14:29:55.893Z,40.0
2023-02-06T14:30:43.267Z,43.1
2023-02-06T14:31:30.668Z,37.1
2023-02-06T14:32:18.112Z,29.6
2023-02-06T14:33:05.442Z,22.4
2023-02-06T14:33:52.769Z,24.9
2023-02-06T14:34:40.176Z,23.0
2023-02-06T14:35:27.507Z,22.3
2023-02-06T14:36:14.858Z,21.9
2023-02-06T14:37:02.270Z,18.5
2023-02-06T14:37:49.589Z,18.7
2023-02-06T14:38:36.928Z,16.0
2023-02-06T14:39:24.329Z,15.7
2023-02-06T14:40:11.705Z,11.9
2023-02-06T14:40:59.010Z,13.8
2023-02-06T14:41:46.461Z,13.0
2023-02-06T14:42:33.784Z,12.2
2023-02-06T14:43:21.101Z,15.5
2023-02-06T14:44:08.486Z,12.1
2023-02-06T14:44:55.787Z,11.4
2023-02-06T14:45:44.009Z,11.5
2023-02-06T14:46:32.313Z,9.9
2023-02-06T14:47:19.653Z,11.4
2023-02-06T14:48:06.974Z,9.2
2023-02-06T14:48:54.285Z,8.5
2023-02-06T14:49:41.713Z,9.4
2023-02-06T14:50:29.072Z,9.0
2023-02-06T14:51:16.397Z,9.2
2023-02-06T14:52:03.789Z,8.8
2023-02-06T14:52:51.150Z,9.3
2023-02-06T14:53:38.472Z,9.6
2023-02-06T14:54:25.895Z,10.9
2023-02-06T14:55:13.218Z,12.0
2023-02-06T14:56:00.528Z,11.5
2023-02-06T14:56:47.961Z,10.8
2023-02-06T14:57:35.279Z,12.2
2023-02-06T14:58:22.599Z,15.6
2023-02-06T14:59:10.016Z,14.4
2023-02-06T14:59:57.355Z,11.2
2023-02-06T15:00:44.715Z,8.6
2023-02-06T15:01:32.768Z,9.1
2023-02-06T15:02:20.102Z,9.3
2023-02-06T15:03:07.398Z,7.4
2023-02-06T15:03:54.792Z,8.7
2023-02-06T15:04:42.160Z,8.3
2023-02-06T15:05:29.495Z,7.9
2023-02-06T15:06:16.812Z,7.6
2023-02-06T15:07:04.279Z,8.6
2023-02-06T15:07:51.597Z,7.5
2023-02-06T15:08:38.913Z,8.4
2023-02-06T15:09:26.379Z,7.8
2023-02-06T15:10:13.720Z,7.8
2023-02-06T15:11:01.058Z,6.5
2023-02-06T15:11:48.489Z,7.8
2023-02-06T15:12:35.817Z,6.7
2023-02-06T15:13:23.156Z,7.3
2023-02-06T15:14:10.543Z,8.6
2023-02-06T15:14:57.861Z,8.3
2023-02-06T15:15:45.184Z,8.2
2023-02-06T15:16:32.641Z,7.6
2023-02-06T15:17:20.037Z,5.8
2023-02-06T15:18:07.342Z,8.2
2023-02-06T15:18:54.769Z,7.2
2023-02-06T15:19:42.107Z,7.1
2023-02-06T15:20:29.464Z,6.8
2023-02-06T15:21:16.838Z,5.5
2023-02-06T15:22:04.199Z,6.0
2023-02-06T15:22:51.535Z,5.1
2023-02-06T15:23:38.918Z,5.8
2023-02-06T15:24:26.246Z,5.8
2023-02-06T15:25:13.598Z,5.3
2023-02-06T15:26:00.988Z,4.7
2023-02-06T15:26:48.326Z,5.5
2023-02-06T15:27:35.635Z,5.9
2023-02-06T15:28:23.164Z,7.8
2023-02-06T15:29:10.557Z,6.9
2023-02-06T15:29:57.877Z,8.9
2023-02-06T15:30:45.274Z,7.3
2023-02-06T15:31:32.695Z,7.4
2023-02-06T15:32:20.050Z,7.3
2023-02-06T15:33:07.463Z,6.4
2023-02-06T15:33:55.401Z,5.6
2023-02-06T15:34:42.815Z,7.3
2023-02-06T15:35:30.230Z,5.2
2023-02-06T15:36:17.554Z,5.4
2023-02-06T15:37:04.864Z,5.9
2023-02-06T15:37:52.262Z,5.3
2023-02-06T15:38:39.588Z,5.1
2023-02-06T15:39:26.902Z,5.7
2023-02-06T15:40:14.309Z,5.9
2023-02-06T15:41:01.611Z,5.2
2023-02-06T15:41:48.914Z,4.4
2023-02-06T15:42:36.358Z,4.9
2023-02-06T15:43:23.667Z,5.3
2023-02-06T15:44:10.990Z,5.2
2023-02-06T15:44:58.389Z,5.4
2023-02-06T15:45:45.783Z,4.4
2023-02-06T15:46:33.151Z,5.2
2023-02-06T15:47:20.579Z,4.1
2023-02-06T15:50:55.860Z,4.1
2023-02-06T15:51:43.305Z,3.7
2023-02-06T15:52:30.658Z,3.7
2023-02-06T15:53:17.985Z,4.4
2023-02-06T15:54:05.393Z,4.0
2023-02-06T15:54:52.720Z,4.7
2023-02-06T15:55:40.030Z,4.8
2023-02-06T15:56:27.560Z,4.0
2023-02-06T15:57:14.886Z,4.9